Main page
METAR-TAF:

METAR-TAF

Airports :

London-Southend, England

London Southend Airport

latitude: 51-34N, longitude: 000-42E, elevation: 15 m

Current weather observation

The report was made 29 minutes ago, at 04:20 UTC
Wind 7 kt from the West/Southwest
Temperature 14°C
Humidity 82%
Pressure 1015 hPa
Visibility 10 km or more
no clouds below 1500 m and no cumulonimbus

METAR: EGMC 240420Z 25007KT CAVOK 14/11 Q1015

Time: 05:49 (04:49 UTC)

Forecast

The report was made 2 hours and 50 minutes ago, at 01:59 UTC
Forecast valid from 24 at 03 UTC to 24 at 12 UTC
Wind 6 kt from the West/Southwest
Visibility 10 km or more
Few clouds at a height of 4500 ft

TAF: EGMC 240159Z 2403/2412 25006KT 9999 FEW045

Weather observations and forecasts of more than 4000 airports (METAR and TAF reports).

The available stations are represented by yellow and red dots on the map.

Hover mouse over dot to see the name of the station.

Then click to see weather observations and forecasts.

To change the map : click on the green buttons with a black cross to zoom in, on the green button with a dash to zoom out, or on the green arrows for adjacent maps.


METAR-TAF: